Terminal Aerodrome Forecast
Issued by NWS

Home | Current Version | Previous Version | Text Only | Print | Product List | Glossary On
Versions: 1 2 3 4 5 6 7 8 9 10 11 12 13 14
566
FTUS45 KREV 060917 AAB
TAFMMH
TAF AMD
KMMH 060917Z 0609/0706 26019G31KT P6SM BKN180
     FM062000 26020G32KT P6SM BKN200
     FM070300 28014G24KT P6SM BKN200=

USA.gov is the U.S. government's official web portal to all federal, state and local government web resources and services.